sensor_id;sensor_type;location;lat;lon;timestamp;P1;durP1;ratioP1;P2;durP2;ratioP2
15616;SDS011;7908;51.688;7.130;2023-11-19T00:01:12;7.87;;;7.13;;
15616;SDS011;7908;51.688;7.130;2023-11-19T00:03:43;6.87;;;6.23;;
15616;SDS011;7908;51.688;7.130;2023-11-19T00:06:18;14.63;;;13.17;;
15616;SDS011;7908;51.688;7.130;2023-11-19T00:08:47;15.10;;;13.57;;
15616;SDS011;7908;51.688;7.130;2023-11-19T00:11:19;14.67;;;13.20;;
15616;SDS011;7908;51.688;7.130;2023-11-19T00:13:48;14.43;;;13.00;;
15616;SDS011;7908;51.688;7.130;2023-11-19T00:16:19;14.43;;;13.03;;
15616;SDS011;7908;51.688;7.130;2023-11-19T00:18:51;13.60;;;12.27;;
15616;SDS011;7908;51.688;7.130;2023-11-19T00:21:22;14.20;;;12.80;;
15616;SDS011;7908;51.688;7.130;2023-11-19T00:23:55;23.97;;;13.40;;
15616;SDS011;7908;51.688;7.130;2023-11-19T00:26:25;25.17;;;20.27;;
15616;SDS011;7908;51.688;7.130;2023-11-19T00:28:54;36.30;;;24.00;;
15616;SDS011;7908;51.688;7.130;2023-11-19T00:31:24;39.13;;;26.80;;
15616;SDS011;7908;51.688;7.130;2023-11-19T00:33:57;46.07;;;31.13;;
15616;SDS011;7908;51.688;7.130;2023-11-19T00:36:30;37.80;;;29.90;;
15616;SDS011;7908;51.688;7.130;2023-11-19T00:38:59;52.73;;;34.23;;
15616;SDS011;7908;51.688;7.130;2023-11-19T00:41:28;53.13;;;35.40;;
15616;SDS011;7908;51.688;7.130;2023-11-19T00:43:57;53.37;;;35.90;;
15616;SDS011;7908;51.688;7.130;2023-11-19T00:46:27;55.93;;;36.37;;
15616;SDS011;7908;51.688;7.130;2023-11-19T00:48:56;74.87;;;40.77;;
15616;SDS011;7908;51.688;7.130;2023-11-19T00:51:28;71.27;;;37.70;;
15616;SDS011;7908;51.688;7.130;2023-11-19T00:53:59;64.43;;;38.53;;
15616;SDS011;7908;51.688;7.130;2023-11-19T00:56:29;76.70;;;43.73;;
15616;SDS011;7908;51.688;7.130;2023-11-19T00:59:01;89.50;;;47.60;;
15616;SDS011;7908;51.688;7.130;2023-11-19T01:01:31;71.70;;;43.33;;
15616;SDS011;7908;51.688;7.130;2023-11-19T01:04:00;75.80;;;47.23;;
15616;SDS011;7908;51.688;7.130;2023-11-19T01:06:31;69.77;;;44.53;;
15616;SDS011;7908;51.688;7.130;2023-11-19T01:09:00;67.83;;;42.50;;
15616;SDS011;7908;51.688;7.130;2023-11-19T01:11:30;84.40;;;45.37;;
15616;SDS011;7908;51.688;7.130;2023-11-19T01:13:58;71.60;;;44.33;;
15616;SDS011;7908;51.688;7.130;2023-11-19T01:16:27;69.23;;;41.90;;
15616;SDS011;7908;51.688;7.130;2023-11-19T01:18:56;50.53;;;26.60;;
15616;SDS011;7908;51.688;7.130;2023-11-19T01:21:42;63.37;;;43.60;;
15616;SDS011;7908;51.688;7.130;2023-11-19T01:24:11;67.67;;;40.07;;
15616;SDS011;7908;51.688;7.130;2023-11-19T01:26:41;72.87;;;45.60;;
15616;SDS011;7908;51.688;7.130;2023-11-19T01:29:12;49.10;;;37.87;;
15616;SDS011;7908;51.688;7.130;2023-11-19T01:31:41;60.17;;;41.43;;
15616;SDS011;7908;51.688;7.130;2023-11-19T01:34:11;66.03;;;42.43;;
15616;SDS011;7908;51.688;7.130;2023-11-19T01:36:39;74.57;;;42.23;;
15616;SDS011;7908;51.688;7.130;2023-11-19T01:39:13;61.47;;;38.77;;
15616;SDS011;7908;51.688;7.130;2023-11-19T01:41:42;53.10;;;35.07;;
15616;SDS011;7908;51.688;7.130;2023-11-19T01:44:11;48.90;;;33.57;;
15616;SDS011;7908;51.688;7.130;2023-11-19T01:46:40;60.73;;;34.70;;
15616;SDS011;7908;51.688;7.130;2023-11-19T01:49:12;49.30;;;32.57;;
15616;SDS011;7908;51.688;7.130;2023-11-19T01:51:44;38.40;;;27.50;;
15616;SDS011;7908;51.688;7.130;2023-11-19T01:54:13;36.80;;;26.77;;
15616;SDS011;7908;51.688;7.130;2023-11-19T01:56:43;37.40;;;24.33;;
15616;SDS011;7908;51.688;7.130;2023-11-19T01:59:12;43.40;;;27.50;;
15616;SDS011;7908;51.688;7.130;2023-11-19T02:01:41;25.73;;;20.13;;
15616;SDS011;7908;51.688;7.130;2023-11-19T02:04:10;32.50;;;20.50;;
15616;SDS011;7908;51.688;7.130;2023-11-19T02:06:41;30.93;;;21.40;;
15616;SDS011;7908;51.688;7.130;2023-11-19T02:09:13;26.97;;;18.83;;
15616;SDS011;7908;51.688;7.130;2023-11-19T02:11:45;25.87;;;20.63;;
15616;SDS011;7908;51.688;7.130;2023-11-19T02:14:17;27.20;;;22.13;;
15616;SDS011;7908;51.688;7.130;2023-11-19T02:16:47;37.20;;;29.70;;
15616;SDS011;7908;51.688;7.130;2023-11-19T02:19:16;27.70;;;22.70;;
15616;SDS011;7908;51.688;7.130;2023-11-19T02:21:48;32.03;;;22.50;;
15616;SDS011;7908;51.688;7.130;2023-11-19T02:24:17;25.37;;;21.90;;
15616;SDS011;7908;51.688;7.130;2023-11-19T02:26:52;32.20;;;21.50;;
15616;SDS011;7908;51.688;7.130;2023-11-19T02:29:29;35.33;;;22.00;;
15616;SDS011;7908;51.688;7.130;2023-11-19T02:31:58;26.30;;;20.17;;
15616;SDS011;7908;51.688;7.130;2023-11-19T02:34:27;24.87;;;18.60;;
15616;SDS011;7908;51.688;7.130;2023-11-19T02:36:55;22.10;;;18.73;;
15616;SDS011;7908;51.688;7.130;2023-11-19T02:39:24;24.17;;;18.57;;
15616;SDS011;7908;51.688;7.130;2023-11-19T02:41:53;32.10;;;20.27;;
15616;SDS011;7908;51.688;7.130;2023-11-19T02:44:21;30.03;;;18.73;;
15616;SDS011;7908;51.688;7.130;2023-11-19T02:46:52;27.63;;;16.33;;
15616;SDS011;7908;51.688;7.130;2023-11-19T02:49:20;23.03;;;15.40;;
15616;SDS011;7908;51.688;7.130;2023-11-19T02:51:49;23.00;;;14.70;;
15616;SDS011;7908;51.688;7.130;2023-11-19T02:54:18;22.87;;;12.47;;
15616;SDS011;7908;51.688;7.130;2023-11-19T02:56:48;19.10;;;13.40;;
15616;SDS011;7908;51.688;7.130;2023-11-19T02:59:22;27.23;;;16.63;;
15616;SDS011;7908;51.688;7.130;2023-11-19T03:01:56;27.00;;;14.60;;
15616;SDS011;7908;51.688;7.130;2023-11-19T03:04:26;32.73;;;13.77;;
15616;SDS011;7908;51.688;7.130;2023-11-19T03:06:55;24.37;;;14.77;;
15616;SDS011;7908;51.688;7.130;2023-11-19T03:09:24;28.60;;;14.00;;
15616;SDS011;7908;51.688;7.130;2023-11-19T03:11:53;34.77;;;19.23;;
15616;SDS011;7908;51.688;7.130;2023-11-19T03:14:21;30.13;;;16.07;;
15616;SDS011;7908;51.688;7.130;2023-11-19T03:16:50;21.57;;;11.60;;
15616;SDS011;7908;51.688;7.130;2023-11-19T03:19:21;40.90;;;16.50;;
15616;SDS011;7908;51.688;7.130;2023-11-19T03:21:51;26.07;;;12.13;;
15616;SDS011;7908;51.688;7.130;2023-11-19T03:24:20;27.53;;;12.97;;
15616;SDS011;7908;51.688;7.130;2023-11-19T03:26:49;27.97;;;12.37;;
15616;SDS011;7908;51.688;7.130;2023-11-19T03:29:18;26.67;;;12.27;;
15616;SDS011;7908;51.688;7.130;2023-11-19T03:31:46;25.10;;;9.03;;
15616;SDS011;7908;51.688;7.130;2023-11-19T03:34:16;18.53;;;8.80;;
15616;SDS011;7908;51.688;7.130;2023-11-19T03:36:47;18.90;;;8.53;;
15616;SDS011;7908;51.688;7.130;2023-11-19T03:39:15;25.37;;;9.00;;
15616;SDS011;7908;51.688;7.130;2023-11-19T03:41:45;28.43;;;10.23;;
15616;SDS011;7908;51.688;7.130;2023-11-19T03:44:14;29.30;;;8.67;;
15616;SDS011;7908;51.688;7.130;2023-11-19T03:46:43;22.97;;;8.53;;
15616;SDS011;7908;51.688;7.130;2023-11-19T03:49:12;25.43;;;8.87;;
15616;SDS011;7908;51.688;7.130;2023-11-19T03:51:40;25.40;;;8.90;;
15616;SDS011;7908;51.688;7.130;2023-11-19T03:54:10;26.30;;;8.93;;
15616;SDS011;7908;51.688;7.130;2023-11-19T03:56:39;30.00;;;9.13;;
15616;SDS011;7908;51.688;7.130;2023-11-19T03:59:06;23.47;;;8.30;;
15616;SDS011;7908;51.688;7.130;2023-11-19T04:01:36;21.63;;;7.77;;
15616;SDS011;7908;51.688;7.130;2023-11-19T04:04:05;19.53;;;6.73;;
15616;SDS011;7908;51.688;7.130;2023-11-19T04:06:34;21.23;;;7.67;;
15616;SDS011;7908;51.688;7.130;2023-11-19T04:09:02;20.73;;;7.17;;
15616;SDS011;7908;51.688;7.130;2023-11-19T04:11:32;24.40;;;7.53;;
15616;SDS011;7908;51.688;7.130;2023-11-19T04:14:01;23.57;;;7.77;;
15616;SDS011;7908;51.688;7.130;2023-11-19T04:16:30;22.87;;;7.30;;
15616;SDS011;7908;51.688;7.130;2023-11-19T04:18:58;25.17;;;7.47;;
15616;SDS011;7908;51.688;7.130;2023-11-19T04:21:27;30.03;;;8.20;;
15616;SDS011;7908;51.688;7.130;2023-11-19T04:23:56;32.67;;;9.50;;
15616;SDS011;7908;51.688;7.130;2023-11-19T04:26:26;32.07;;;8.43;;
15616;SDS011;7908;51.688;7.130;2023-11-19T04:28:56;27.70;;;8.40;;
15616;SDS011;7908;51.688;7.130;2023-11-19T04:31:28;26.80;;;8.50;;
15616;SDS011;7908;51.688;7.130;2023-11-19T04:33:58;28.10;;;8.80;;
15616;SDS011;7908;51.688;7.130;2023-11-19T04:36:27;31.83;;;7.93;;
15616;SDS011;7908;51.688;7.130;2023-11-19T04:38:56;36.70;;;8.33;;
15616;SDS011;7908;51.688;7.130;2023-11-19T04:41:26;38.53;;;8.27;;
15616;SDS011;7908;51.688;7.130;2023-11-19T04:43:56;30.20;;;7.77;;
15616;SDS011;7908;51.688;7.130;2023-11-19T04:46:25;31.60;;;7.10;;
15616;SDS011;7908;51.688;7.130;2023-11-19T04:48:53;37.10;;;8.63;;
15616;SDS011;7908;51.688;7.130;2023-11-19T04:51:22;36.00;;;7.67;;
15616;SDS011;7908;51.688;7.130;2023-11-19T04:53:51;29.03;;;6.57;;
15616;SDS011;7908;51.688;7.130;2023-11-19T04:56:19;45.83;;;7.60;;
15616;SDS011;7908;51.688;7.130;2023-11-19T04:58:49;39.93;;;8.00;;
15616;SDS011;7908;51.688;7.130;2023-11-19T05:01:19;30.77;;;6.50;;
15616;SDS011;7908;51.688;7.130;2023-11-19T05:03:48;35.90;;;6.57;;
15616;SDS011;7908;51.688;7.130;2023-11-19T05:06:18;39.50;;;7.27;;
15616;SDS011;7908;51.688;7.130;2023-11-19T05:08:46;40.13;;;7.33;;
15616;SDS011;7908;51.688;7.130;2023-11-19T05:11:15;39.77;;;7.03;;
15616;SDS011;7908;51.688;7.130;2023-11-19T05:13:46;42.27;;;7.90;;
15616;SDS011;7908;51.688;7.130;2023-11-19T05:16:14;33.87;;;6.83;;
15616;SDS011;7908;51.688;7.130;2023-11-19T05:18:45;47.67;;;7.53;;
15616;SDS011;7908;51.688;7.130;2023-11-19T05:21:14;49.87;;;7.77;;
15616;SDS011;7908;51.688;7.130;2023-11-19T05:23:44;44.23;;;7.70;;
15616;SDS011;7908;51.688;7.130;2023-11-19T05:26:17;47.47;;;8.43;;
15616;SDS011;7908;51.688;7.130;2023-11-19T05:28:47;35.57;;;7.13;;
15616;SDS011;7908;51.688;7.130;2023-11-19T05:31:16;46.73;;;9.40;;
15616;SDS011;7908;51.688;7.130;2023-11-19T05:33:47;49.50;;;8.93;;
15616;SDS011;7908;51.688;7.130;2023-11-19T05:36:16;50.60;;;8.93;;
15616;SDS011;7908;51.688;7.130;2023-11-19T05:38:44;47.73;;;9.30;;
15616;SDS011;7908;51.688;7.130;2023-11-19T05:41:13;50.00;;;9.67;;
15616;SDS011;7908;51.688;7.130;2023-11-19T05:43:42;45.27;;;8.90;;
15616;SDS011;7908;51.688;7.130;2023-11-19T05:46:11;58.83;;;10.00;;
15616;SDS011;7908;51.688;7.130;2023-11-19T05:48:43;49.10;;;10.13;;
15616;SDS011;7908;51.688;7.130;2023-11-19T05:51:15;49.93;;;9.20;;
15616;SDS011;7908;51.688;7.130;2023-11-19T05:53:43;40.80;;;10.30;;
15616;SDS011;7908;51.688;7.130;2023-11-19T05:56:13;48.30;;;10.33;;
15616;SDS011;7908;51.688;7.130;2023-11-19T05:58:42;50.60;;;10.83;;
15616;SDS011;7908;51.688;7.130;2023-11-19T06:01:11;54.93;;;10.83;;
15616;SDS011;7908;51.688;7.130;2023-11-19T06:03:40;54.40;;;11.93;;
15616;SDS011;7908;51.688;7.130;2023-11-19T06:06:10;49.70;;;11.53;;
15616;SDS011;7908;51.688;7.130;2023-11-19T06:08:40;63.07;;;10.73;;
15616;SDS011;7908;51.688;7.130;2023-11-19T06:11:09;56.77;;;10.23;;
15616;SDS011;7908;51.688;7.130;2023-11-19T06:13:44;45.13;;;9.53;;
15616;SDS011;7908;51.688;7.130;2023-11-19T06:16:14;49.17;;;10.20;;
15616;SDS011;7908;51.688;7.130;2023-11-19T06:18:43;43.23;;;9.80;;
15616;SDS011;7908;51.688;7.130;2023-11-19T06:21:12;53.13;;;9.73;;
15616;SDS011;7908;51.688;7.130;2023-11-19T06:23:42;44.80;;;8.90;;
15616;SDS011;7908;51.688;7.130;2023-11-19T06:26:11;45.40;;;8.43;;
15616;SDS011;7908;51.688;7.130;2023-11-19T06:28:40;42.73;;;9.03;;
15616;SDS011;7908;51.688;7.130;2023-11-19T06:31:09;37.93;;;7.77;;
15616;SDS011;7908;51.688;7.130;2023-11-19T06:33:38;44.33;;;8.37;;
15616;SDS011;7908;51.688;7.130;2023-11-19T06:36:07;58.27;;;8.63;;
15616;SDS011;7908;51.688;7.130;2023-11-19T06:38:36;38.60;;;7.70;;
15616;SDS011;7908;51.688;7.130;2023-11-19T06:41:08;36.23;;;7.23;;
15616;SDS011;7908;51.688;7.130;2023-11-19T06:43:37;61.47;;;8.63;;
15616;SDS011;7908;51.688;7.130;2023-11-19T06:46:14;39.20;;;8.00;;
15616;SDS011;7908;51.688;7.130;2023-11-19T06:48:43;33.93;;;7.37;;
15616;SDS011;7908;51.688;7.130;2023-11-19T06:51:12;34.03;;;6.70;;
15616;SDS011;7908;51.688;7.130;2023-11-19T06:53:42;39.63;;;7.20;;
15616;SDS011;7908;51.688;7.130;2023-11-19T06:56:23;36.30;;;7.20;;
15616;SDS011;7908;51.688;7.130;2023-11-19T06:58:52;37.80;;;7.03;;
15616;SDS011;7908;51.688;7.130;2023-11-19T07:01:21;47.20;;;7.23;;
15616;SDS011;7908;51.688;7.130;2023-11-19T07:03:50;46.93;;;7.50;;
15616;SDS011;7908;51.688;7.130;2023-11-19T07:06:19;35.93;;;6.70;;
15616;SDS011;7908;51.688;7.130;2023-11-19T07:09:00;38.03;;;6.77;;
15616;SDS011;7908;51.688;7.130;2023-11-19T07:11:38;43.43;;;7.77;;
15616;SDS011;7908;51.688;7.130;2023-11-19T07:14:07;37.50;;;6.83;;
15616;SDS011;7908;51.688;7.130;2023-11-19T07:16:36;37.90;;;6.83;;
15616;SDS011;7908;51.688;7.130;2023-11-19T07:19:06;52.07;;;8.60;;
15616;SDS011;7908;51.688;7.130;2023-11-19T07:21:35;51.67;;;7.53;;
15616;SDS011;7908;51.688;7.130;2023-11-19T07:24:06;45.80;;;7.90;;
15616;SDS011;7908;51.688;7.130;2023-11-19T07:26:35;43.90;;;7.93;;
15616;SDS011;7908;51.688;7.130;2023-11-19T07:29:09;46.13;;;8.27;;
15616;SDS011;7908;51.688;7.130;2023-11-19T07:31:38;45.60;;;7.93;;
15616;SDS011;7908;51.688;7.130;2023-11-19T07:34:06;48.10;;;7.77;;
15616;SDS011;7908;51.688;7.130;2023-11-19T07:36:35;51.53;;;8.30;;
15616;SDS011;7908;51.688;7.130;2023-11-19T07:39:04;46.30;;;9.00;;
15616;SDS011;7908;51.688;7.130;2023-11-19T07:41:33;54.17;;;8.63;;
15616;SDS011;7908;51.688;7.130;2023-11-19T07:44:04;52.50;;;8.60;;
15616;SDS011;7908;51.688;7.130;2023-11-19T07:46:33;45.00;;;7.57;;
15616;SDS011;7908;51.688;7.130;2023-11-19T07:49:02;51.70;;;8.13;;
15616;SDS011;7908;51.688;7.130;2023-11-19T07:51:31;50.87;;;7.77;;
15616;SDS011;7908;51.688;7.130;2023-11-19T07:54:00;47.73;;;7.40;;
15616;SDS011;7908;51.688;7.130;2023-11-19T07:56:29;44.83;;;7.37;;
15616;SDS011;7908;51.688;7.130;2023-11-19T07:58:57;46.53;;;7.00;;
15616;SDS011;7908;51.688;7.130;2023-11-19T08:01:28;49.60;;;7.07;;
15616;SDS011;7908;51.688;7.130;2023-11-19T08:03:57;42.23;;;7.63;;
15616;SDS011;7908;51.688;7.130;2023-11-19T08:06:26;39.07;;;6.10;;
15616;SDS011;7908;51.688;7.130;2023-11-19T08:08:56;46.13;;;6.90;;
15616;SDS011;7908;51.688;7.130;2023-11-19T08:11:24;49.40;;;6.60;;
15616;SDS011;7908;51.688;7.130;2023-11-19T08:13:53;36.73;;;6.60;;
15616;SDS011;7908;51.688;7.130;2023-11-19T08:16:22;37.73;;;6.83;;
15616;SDS011;7908;51.688;7.130;2023-11-19T08:18:53;34.93;;;5.87;;
15616;SDS011;7908;51.688;7.130;2023-11-19T08:21:23;38.73;;;6.67;;
15616;SDS011;7908;51.688;7.130;2023-11-19T08:23:53;35.13;;;6.23;;
15616;SDS011;7908;51.688;7.130;2023-11-19T08:26:23;42.27;;;6.80;;
15616;SDS011;7908;51.688;7.130;2023-11-19T08:28:52;38.87;;;6.13;;
15616;SDS011;7908;51.688;7.130;2023-11-19T08:31:22;37.70;;;5.53;;
15616;SDS011;7908;51.688;7.130;2023-11-19T08:33:54;42.87;;;6.50;;
15616;SDS011;7908;51.688;7.130;2023-11-19T08:36:23;37.23;;;5.53;;
15616;SDS011;7908;51.688;7.130;2023-11-19T08:38:52;37.63;;;5.67;;
15616;SDS011;7908;51.688;7.130;2023-11-19T08:41:22;40.37;;;5.83;;
15616;SDS011;7908;51.688;7.130;2023-11-19T08:43:52;36.33;;;6.33;;
15616;SDS011;7908;51.688;7.130;2023-11-19T08:46:21;37.20;;;6.63;;
15616;SDS011;7908;51.688;7.130;2023-11-19T08:48:50;32.27;;;5.73;;
15616;SDS011;7908;51.688;7.130;2023-11-19T08:51:24;33.37;;;6.40;;
15616;SDS011;7908;51.688;7.130;2023-11-19T08:53:55;31.97;;;6.20;;
15616;SDS011;7908;51.688;7.130;2023-11-19T08:56:24;34.57;;;6.23;;
15616;SDS011;7908;51.688;7.130;2023-11-19T08:58:58;39.30;;;7.43;;
15616;SDS011;7908;51.688;7.130;2023-11-19T09:01:27;41.20;;;6.40;;
15616;SDS011;7908;51.688;7.130;2023-11-19T09:03:57;36.20;;;6.03;;
15616;SDS011;7908;51.688;7.130;2023-11-19T09:06:29;40.47;;;6.63;;
15616;SDS011;7908;51.688;7.130;2023-11-19T09:08:58;34.07;;;6.27;;
15616;SDS011;7908;51.688;7.130;2023-11-19T09:11:29;33.47;;;5.87;;
15616;SDS011;7908;51.688;7.130;2023-11-19T09:13:58;31.50;;;6.00;;
15616;SDS011;7908;51.688;7.130;2023-11-19T09:16:28;35.07;;;6.73;;
15616;SDS011;7908;51.688;7.130;2023-11-19T09:18:57;34.13;;;6.13;;
15616;SDS011;7908;51.688;7.130;2023-11-19T09:21:33;37.57;;;6.23;;
15616;SDS011;7908;51.688;7.130;2023-11-19T09:24:05;35.37;;;6.17;;
15616;SDS011;7908;51.688;7.130;2023-11-19T09:26:35;36.43;;;5.83;;
15616;SDS011;7908;51.688;7.130;2023-11-19T09:29:07;11.90;;;10.93;;
15616;SDS011;7908;51.688;7.130;2023-11-19T09:31:37;10.43;;;9.50;;
15616;SDS011;7908;51.688;7.130;2023-11-19T09:34:07;9.73;;;8.90;;
15616;SDS011;7908;51.688;7.130;2023-11-19T09:36:38;10.77;;;9.87;;
15616;SDS011;7908;51.688;7.130;2023-11-19T09:39:13;13.30;;;12.20;;
15616;SDS011;7908;51.688;7.130;2023-11-19T09:41:45;12.20;;;11.17;;
15616;SDS011;7908;51.688;7.130;2023-11-19T09:44:14;12.83;;;11.77;;
15616;SDS011;7908;51.688;7.130;2023-11-19T09:46:45;12.50;;;11.43;;
15616;SDS011;7908;51.688;7.130;2023-11-19T09:49:16;12.30;;;11.30;;
15616;SDS011;7908;51.688;7.130;2023-11-19T09:52:03;11.47;;;10.53;;
15616;SDS011;7908;51.688;7.130;2023-11-19T09:54:36;11.10;;;10.20;;
15616;SDS011;7908;51.688;7.130;2023-11-19T09:57:08;11.00;;;10.07;;
15616;SDS011;7908;51.688;7.130;2023-11-19T09:59:51;7.93;;;7.30;;
15616;SDS011;7908;51.688;7.130;2023-11-19T10:02:22;7.20;;;6.63;;
15616;SDS011;7908;51.688;7.130;2023-11-19T10:05:06;8.73;;;8.07;;
15616;SDS011;7908;51.688;7.130;2023-11-19T10:07:46;6.70;;;6.23;;
15616;SDS011;7908;51.688;7.130;2023-11-19T10:10:19;6.30;;;5.83;;
15616;SDS011;7908;51.688;7.130;2023-11-19T10:12:54;7.53;;;6.97;;
15616;SDS011;7908;51.688;7.130;2023-11-19T10:15:32;7.20;;;6.67;;
15616;SDS011;7908;51.688;7.130;2023-11-19T10:18:06;8.17;;;7.53;;
15616;SDS011;7908;51.688;7.130;2023-11-19T10:20:36;8.33;;;7.70;;
15616;SDS011;7908;51.688;7.130;2023-11-19T10:23:07;9.47;;;8.77;;
15616;SDS011;7908;51.688;7.130;2023-11-19T10:25:40;9.40;;;8.70;;
15616;SDS011;7908;51.688;7.130;2023-11-19T10:28:10;7.43;;;6.87;;
15616;SDS011;7908;51.688;7.130;2023-11-19T10:30:45;5.87;;;5.43;;
15616;SDS011;7908;51.688;7.130;2023-11-19T10:33:25;5.20;;;4.83;;
15616;SDS011;7908;51.688;7.130;2023-11-19T10:35:59;4.13;;;3.87;;
15616;SDS011;7908;51.688;7.130;2023-11-19T10:41:40;1.83;;;1.73;;
15616;SDS011;7908;51.688;7.130;2023-11-19T10:47:10;0.53;;;0.53;;
15616;SDS011;7908;51.688;7.130;2023-11-19T10:49:52;0.40;;;0.40;;
15616;SDS011;7908;51.688;7.130;2023-11-19T10:52:23;0.93;;;0.90;;
15616;SDS011;7908;51.688;7.130;2023-11-19T10:54:57;0.30;;;0.30;;
15616;SDS011;7908;51.688;7.130;2023-11-19T10:57:34;0.57;;;0.57;;
15616;SDS011;7908;51.688;7.130;2023-11-19T11:00:08;0.00;;;0.00;;
15616;SDS011;7908;51.688;7.130;2023-11-19T11:02:41;0.03;;;0.03;;
15616;SDS011;7908;51.688;7.130;2023-11-19T11:05:22;0.00;;;0.00;;
15616;SDS011;7908;51.688;7.130;2023-11-19T11:08:19;0.00;;;0.00;;
15616;SDS011;7908;51.688;7.130;2023-11-19T11:10:55;0.00;;;0.00;;
15616;SDS011;7908;51.688;7.130;2023-11-19T11:13:37;0.10;;;0.10;;
15616;SDS011;7908;51.688;7.130;2023-11-19T11:16:28;0.00;;;0.00;;
15616;SDS011;7908;51.688;7.130;2023-11-19T11:19:07;0.20;;;0.20;;
15616;SDS011;7908;51.688;7.130;2023-11-19T11:21:40;0.10;;;0.10;;
15616;SDS011;7908;51.688;7.130;2023-11-19T11:24:25;0.27;;;0.27;;
15616;SDS011;7908;51.688;7.130;2023-11-19T11:30:27;0.33;;;0.33;;
15616;SDS011;7908;51.688;7.130;2023-11-19T11:33:11;0.00;;;0.00;;
15616;SDS011;7908;51.688;7.130;2023-11-19T11:35:59;0.30;;;0.30;;
15616;SDS011;7908;51.688;7.130;2023-11-19T11:38:53;0.33;;;0.33;;
15616;SDS011;7908;51.688;7.130;2023-11-19T11:41:34;0.13;;;0.13;;
15616;SDS011;7908;51.688;7.130;2023-11-19T11:44:06;0.37;;;0.37;;
15616;SDS011;7908;51.688;7.130;2023-11-19T11:46:54;2.27;;;2.13;;
15616;SDS011;7908;51.688;7.130;2023-11-19T11:49:32;2.13;;;2.00;;
15616;SDS011;7908;51.688;7.130;2023-11-19T11:52:30;2.30;;;2.17;;
15616;SDS011;7908;51.688;7.130;2023-11-19T11:55:04;2.67;;;2.50;;
15616;SDS011;7908;51.688;7.130;2023-11-19T11:57:37;10.77;;;9.67;;
15616;SDS011;7908;51.688;7.130;2023-11-19T12:00:22;22.17;;;16.90;;
15616;SDS011;7908;51.688;7.130;2023-11-19T12:03:12;24.60;;;17.83;;
15616;SDS011;7908;51.688;7.130;2023-11-19T12:05:44;25.97;;;18.07;;
15616;SDS011;7908;51.688;7.130;2023-11-19T12:08:14;25.33;;;18.17;;
15616;SDS011;7908;51.688;7.130;2023-11-19T12:10:53;21.77;;;16.30;;
15616;SDS011;7908;51.688;7.130;2023-11-19T12:16:18;25.70;;;18.00;;
15616;SDS011;7908;51.688;7.130;2023-11-19T12:18:51;26.97;;;18.47;;
15616;SDS011;7908;51.688;7.130;2023-11-19T12:21:27;26.47;;;18.50;;
15616;SDS011;7908;51.688;7.130;2023-11-19T12:24:00;25.07;;;17.93;;
15616;SDS011;7908;51.688;7.130;2023-11-19T12:26:38;21.87;;;16.07;;
15616;SDS011;7908;51.688;7.130;2023-11-19T12:29:09;24.23;;;17.50;;
15616;SDS011;7908;51.688;7.130;2023-11-19T12:31:57;24.57;;;17.77;;
15616;SDS011;7908;51.688;7.130;2023-11-19T12:34:52;24.50;;;18.10;;
15616;SDS011;7908;51.688;7.130;2023-11-19T12:37:22;24.47;;;18.30;;
15616;SDS011;7908;51.688;7.130;2023-11-19T12:39:54;24.50;;;18.60;;
15616;SDS011;7908;51.688;7.130;2023-11-19T12:42:36;23.43;;;18.07;;
15616;SDS011;7908;51.688;7.130;2023-11-19T12:45:07;12.70;;;11.70;;
15616;SDS011;7908;51.688;7.130;2023-11-19T12:47:50;10.90;;;10.07;;
15616;SDS011;7908;51.688;7.130;2023-11-19T12:50:52;10.13;;;9.37;;
15616;SDS011;7908;51.688;7.130;2023-11-19T12:53:24;13.07;;;11.07;;
15616;SDS011;7908;51.688;7.130;2023-11-19T12:55:59;25.73;;;18.93;;
15616;SDS011;7908;51.688;7.130;2023-11-19T12:58:40;25.00;;;17.87;;
15616;SDS011;7908;51.688;7.130;2023-11-19T13:01:18;18.07;;;16.13;;
15616;SDS011;7908;51.688;7.130;2023-11-19T13:03:55;11.90;;;10.93;;
15616;SDS011;7908;51.688;7.130;2023-11-19T13:06:25;9.90;;;9.13;;
15616;SDS011;7908;51.688;7.130;2023-11-19T13:08:56;8.07;;;7.47;;
15616;SDS011;7908;51.688;7.130;2023-11-19T13:11:32;7.13;;;6.60;;
15616;SDS011;7908;51.688;7.130;2023-11-19T13:14:06;5.17;;;4.80;;
15616;SDS011;7908;51.688;7.130;2023-11-19T13:16:36;5.67;;;5.27;;
15616;SDS011;7908;51.688;7.130;2023-11-19T13:19:11;3.83;;;3.57;;
15616;SDS011;7908;51.688;7.130;2023-11-19T13:21:43;5.60;;;5.20;;
15616;SDS011;7908;51.688;7.130;2023-11-19T13:24:18;5.93;;;5.50;;
15616;SDS011;7908;51.688;7.130;2023-11-19T13:26:49;5.67;;;5.27;;
15616;SDS011;7908;51.688;7.130;2023-11-19T13:29:23;5.23;;;4.87;;
15616;SDS011;7908;51.688;7.130;2023-11-19T13:31:57;6.77;;;6.30;;
15616;SDS011;7908;51.688;7.130;2023-11-19T13:34:30;7.97;;;7.37;;
15616;SDS011;7908;51.688;7.130;2023-11-19T13:37:07;7.77;;;7.20;;
15616;SDS011;7908;51.688;7.130;2023-11-19T13:39:44;5.97;;;5.53;;
15616;SDS011;7908;51.688;7.130;2023-11-19T13:42:24;7.20;;;6.70;;
15616;SDS011;7908;51.688;7.130;2023-11-19T13:44:55;7.47;;;6.93;;
15616;SDS011;7908;51.688;7.130;2023-11-19T13:47:33;8.07;;;7.47;;
15616;SDS011;7908;51.688;7.130;2023-11-19T13:50:07;7.73;;;7.17;;
15616;SDS011;7908;51.688;7.130;2023-11-19T13:52:37;7.47;;;6.90;;
15616;SDS011;7908;51.688;7.130;2023-11-19T13:55:08;7.20;;;6.67;;
15616;SDS011;7908;51.688;7.130;2023-11-19T13:57:48;7.00;;;6.50;;
15616;SDS011;7908;51.688;7.130;2023-11-19T14:00:20;4.93;;;4.60;;
15616;SDS011;7908;51.688;7.130;2023-11-19T14:02:52;4.97;;;4.63;;
15616;SDS011;7908;51.688;7.130;2023-11-19T14:05:31;3.13;;;2.97;;
15616;SDS011;7908;51.688;7.130;2023-11-19T14:08:07;1.33;;;1.27;;
15616;SDS011;7908;51.688;7.130;2023-11-19T14:11:02;1.63;;;1.57;;
15616;SDS011;7908;51.688;7.130;2023-11-19T14:13:43;3.13;;;2.97;;
15616;SDS011;7908;51.688;7.130;2023-11-19T14:16:20;3.80;;;3.57;;
15616;SDS011;7908;51.688;7.130;2023-11-19T14:18:53;5.43;;;5.07;;
15616;SDS011;7908;51.688;7.130;2023-11-19T14:21:27;4.40;;;4.13;;
15616;SDS011;7908;51.688;7.130;2023-11-19T14:24:25;4.10;;;3.83;;
15616;SDS011;7908;51.688;7.130;2023-11-19T14:27:03;1.87;;;1.77;;
15616;SDS011;7908;51.688;7.130;2023-11-19T14:29:36;0.47;;;0.47;;
15616;SDS011;7908;51.688;7.130;2023-11-19T14:32:06;1.47;;;1.40;;
15616;SDS011;7908;51.688;7.130;2023-11-19T14:34:43;2.83;;;2.67;;
15616;SDS011;7908;51.688;7.130;2023-11-19T14:37:20;4.23;;;3.97;;
15616;SDS011;7908;51.688;7.130;2023-11-19T14:39:54;3.30;;;3.10;;
15616;SDS011;7908;51.688;7.130;2023-11-19T14:42:26;2.40;;;2.27;;
15616;SDS011;7908;51.688;7.130;2023-11-19T14:45:04;1.00;;;1.00;;
15616;SDS011;7908;51.688;7.130;2023-11-19T14:47:38;0.17;;;0.17;;
15616;SDS011;7908;51.688;7.130;2023-11-19T14:50:11;1.40;;;1.33;;
15616;SDS011;7908;51.688;7.130;2023-11-19T14:52:46;0.37;;;0.37;;
15616;SDS011;7908;51.688;7.130;2023-11-19T14:55:16;0.70;;;0.67;;
15616;SDS011;7908;51.688;7.130;2023-11-19T14:57:48;0.33;;;0.33;;
15616;SDS011;7908;51.688;7.130;2023-11-19T15:00:34;0.40;;;0.40;;
15616;SDS011;7908;51.688;7.130;2023-11-19T15:03:04;0.13;;;0.13;;
15616;SDS011;7908;51.688;7.130;2023-11-19T15:05:37;0.10;;;0.10;;
15616;SDS011;7908;51.688;7.130;2023-11-19T15:11:06;0.07;;;0.07;;
15616;SDS011;7908;51.688;7.130;2023-11-19T15:13:36;0.93;;;0.90;;
15616;SDS011;7908;51.688;7.130;2023-11-19T15:16:07;0.33;;;0.33;;
15616;SDS011;7908;51.688;7.130;2023-11-19T15:18:41;0.17;;;0.17;;
15616;SDS011;7908;51.688;7.130;2023-11-19T15:21:15;0.00;;;0.00;;
15616;SDS011;7908;51.688;7.130;2023-11-19T15:23:50;0.03;;;0.03;;
15616;SDS011;7908;51.688;7.130;2023-11-19T15:26:21;0.00;;;0.00;;
15616;SDS011;7908;51.688;7.130;2023-11-19T15:29:05;0.10;;;0.10;;
15616;SDS011;7908;51.688;7.130;2023-11-19T15:31:36;0.20;;;0.20;;
15616;SDS011;7908;51.688;7.130;2023-11-19T15:34:06;0.10;;;0.10;;